sensor_id;sensor_type;location;lat;lon;timestamp;P1;durP1;ratioP1;P2;durP2;ratioP2
30127;SDS011;16942;53.196;6.592;2022-08-11T00:00:35;5.97;;;4.50;;
30127;SDS011;16942;53.196;6.592;2022-08-11T00:03:05;6.60;;;5.13;;
30127;SDS011;16942;53.196;6.592;2022-08-11T00:05:32;8.30;;;4.83;;
30127;SDS011;16942;53.196;6.592;2022-08-11T00:08:08;8.83;;;5.20;;
30127;SDS011;16942;53.196;6.592;2022-08-11T00:10:35;5.57;;;4.63;;
30127;SDS011;16942;53.196;6.592;2022-08-11T00:13:03;6.37;;;4.73;;
30127;SDS011;16942;53.196;6.592;2022-08-11T00:15:42;5.37;;;4.70;;
30127;SDS011;16942;53.196;6.592;2022-08-11T00:18:09;6.13;;;4.40;;
30127;SDS011;16942;53.196;6.592;2022-08-11T00:20:37;6.80;;;4.53;;
30127;SDS011;16942;53.196;6.592;2022-08-11T00:23:09;5.13;;;4.57;;
30127;SDS011;16942;53.196;6.592;2022-08-11T00:25:42;7.40;;;5.40;;
30127;SDS011;16942;53.196;6.592;2022-08-11T00:28:26;6.80;;;5.03;;
30127;SDS011;16942;53.196;6.592;2022-08-11T00:30:52;6.27;;;5.60;;
30127;SDS011;16942;53.196;6.592;2022-08-11T00:33:20;8.40;;;5.60;;
30127;SDS011;16942;53.196;6.592;2022-08-11T00:35:48;11.87;;;6.50;;
30127;SDS011;16942;53.196;6.592;2022-08-11T00:38:15;6.13;;;5.53;;
30127;SDS011;16942;53.196;6.592;2022-08-11T00:41:00;9.67;;;6.20;;
30127;SDS011;16942;53.196;6.592;2022-08-11T00:51:57;10.00;;;6.83;;
30127;SDS011;16942;53.196;6.592;2022-08-11T00:59:59;9.47;;;6.60;;
30127;SDS011;16942;53.196;6.592;2022-08-11T01:02:43;9.57;;;6.27;;
30127;SDS011;16942;53.196;6.592;2022-08-11T01:16:02;9.77;;;6.33;;
30127;SDS011;16942;53.196;6.592;2022-08-11T01:18:44;10.33;;;6.73;;
30127;SDS011;16942;53.196;6.592;2022-08-11T01:33:01;9.80;;;6.73;;
30127;SDS011;16942;53.196;6.592;2022-08-11T01:54:43;8.73;;;7.00;;
30127;SDS011;16942;53.196;6.592;2022-08-11T02:00:05;10.00;;;6.30;;
30127;SDS011;16942;53.196;6.592;2022-08-11T02:02:36;8.57;;;6.30;;
30127;SDS011;16942;53.196;6.592;2022-08-11T02:05:40;10.33;;;6.17;;
30127;SDS011;16942;53.196;6.592;2022-08-11T02:11:29;8.83;;;6.30;;
30127;SDS011;16942;53.196;6.592;2022-08-11T02:14:18;8.53;;;7.00;;
30127;SDS011;16942;53.196;6.592;2022-08-11T02:17:22;9.20;;;6.13;;
30127;SDS011;16942;53.196;6.592;2022-08-11T02:20:09;11.57;;;7.43;;
30127;SDS011;16942;53.196;6.592;2022-08-11T02:26:24;9.77;;;7.53;;
30127;SDS011;16942;53.196;6.592;2022-08-11T02:28:58;9.37;;;6.83;;
30127;SDS011;16942;53.196;6.592;2022-08-11T02:31:46;9.90;;;7.30;;
30127;SDS011;16942;53.196;6.592;2022-08-11T02:34:50;9.27;;;6.57;;
30127;SDS011;16942;53.196;6.592;2022-08-11T02:40:37;9.43;;;7.43;;
30127;SDS011;16942;53.196;6.592;2022-08-11T02:47:33;9.33;;;7.77;;
30127;SDS011;16942;53.196;6.592;2022-08-11T02:50:32;9.07;;;6.83;;
30127;SDS011;16942;53.196;6.592;2022-08-11T02:53:16;9.13;;;7.33;;
30127;SDS011;16942;53.196;6.592;2022-08-11T02:56:00;9.50;;;6.90;;
30127;SDS011;16942;53.196;6.592;2022-08-11T03:04:26;10.77;;;7.27;;
30127;SDS011;16942;53.196;6.592;2022-08-11T03:07:09;11.63;;;7.20;;
30127;SDS011;16942;53.196;6.592;2022-08-11T03:09:51;12.07;;;6.77;;
30127;SDS011;16942;53.196;6.592;2022-08-11T03:12:48;11.40;;;7.80;;
30127;SDS011;16942;53.196;6.592;2022-08-11T03:15:42;11.67;;;7.80;;
30127;SDS011;16942;53.196;6.592;2022-08-11T03:18:55;9.60;;;7.70;;
30127;SDS011;16942;53.196;6.592;2022-08-11T03:21:25;9.93;;;7.17;;
30127;SDS011;16942;53.196;6.592;2022-08-11T03:24:07;11.30;;;7.50;;
30127;SDS011;16942;53.196;6.592;2022-08-11T03:26:48;13.30;;;7.60;;
30127;SDS011;16942;53.196;6.592;2022-08-11T03:29:31;9.37;;;6.70;;
30127;SDS011;16942;53.196;6.592;2022-08-11T03:32:23;10.57;;;7.43;;
30127;SDS011;16942;53.196;6.592;2022-08-11T03:34:54;10.80;;;8.13;;
30127;SDS011;16942;53.196;6.592;2022-08-11T03:37:45;10.90;;;7.40;;
30127;SDS011;16942;53.196;6.592;2022-08-11T03:40:36;9.70;;;7.30;;
30127;SDS011;16942;53.196;6.592;2022-08-11T03:46:26;11.07;;;7.10;;
30127;SDS011;16942;53.196;6.592;2022-08-11T03:52:15;10.70;;;7.53;;
30127;SDS011;16942;53.196;6.592;2022-08-11T03:55:07;9.33;;;7.43;;
30127;SDS011;16942;53.196;6.592;2022-08-11T03:57:48;11.07;;;7.50;;
30127;SDS011;16942;53.196;6.592;2022-08-11T04:08:26;13.03;;;8.20;;
30127;SDS011;16942;53.196;6.592;2022-08-11T04:23:48;14.67;;;8.50;;
30127;SDS011;16942;53.196;6.592;2022-08-11T04:28:49;13.13;;;8.67;;
30127;SDS011;16942;53.196;6.592;2022-08-11T04:51:21;14.60;;;9.80;;
30127;SDS011;16942;53.196;6.592;2022-08-11T04:54:48;17.07;;;9.90;;
30127;SDS011;16942;53.196;6.592;2022-08-11T05:00:55;15.03;;;9.03;;
30127;SDS011;16942;53.196;6.592;2022-08-11T05:13:05;14.83;;;9.33;;
30127;SDS011;16942;53.196;6.592;2022-08-11T05:15:52;14.63;;;9.30;;
30127;SDS011;16942;53.196;6.592;2022-08-11T05:18:45;13.13;;;8.70;;
30127;SDS011;16942;53.196;6.592;2022-08-11T05:21:32;12.87;;;9.10;;
30127;SDS011;16942;53.196;6.592;2022-08-11T05:24:22;12.97;;;8.53;;
30127;SDS011;16942;53.196;6.592;2022-08-11T05:27:19;12.77;;;9.53;;
30127;SDS011;16942;53.196;6.592;2022-08-11T05:30:12;15.57;;;10.27;;
30127;SDS011;16942;53.196;6.592;2022-08-11T05:35:54;14.60;;;9.97;;
30127;SDS011;16942;53.196;6.592;2022-08-11T05:38:49;21.07;;;10.00;;
30127;SDS011;16942;53.196;6.592;2022-08-11T05:41:56;15.37;;;8.90;;
30127;SDS011;16942;53.196;6.592;2022-08-11T05:44:46;14.83;;;9.23;;
30127;SDS011;16942;53.196;6.592;2022-08-11T05:47:32;9.73;;;8.13;;
30127;SDS011;16942;53.196;6.592;2022-08-11T05:50:18;11.87;;;8.60;;
30127;SDS011;16942;53.196;6.592;2022-08-11T05:53:08;13.97;;;9.50;;
30127;SDS011;16942;53.196;6.592;2022-08-11T05:55:54;14.03;;;9.50;;
30127;SDS011;16942;53.196;6.592;2022-08-11T05:58:41;14.73;;;10.40;;
30127;SDS011;16942;53.196;6.592;2022-08-11T06:01:12;12.67;;;8.53;;
30127;SDS011;16942;53.196;6.592;2022-08-11T06:03:47;14.97;;;8.70;;
30127;SDS011;16942;53.196;6.592;2022-08-11T06:06:37;13.63;;;8.83;;
30127;SDS011;16942;53.196;6.592;2022-08-11T06:09:06;12.33;;;9.27;;
30127;SDS011;16942;53.196;6.592;2022-08-11T06:11:37;13.20;;;9.70;;
30127;SDS011;16942;53.196;6.592;2022-08-11T06:14:04;13.67;;;10.00;;
30127;SDS011;16942;53.196;6.592;2022-08-11T06:16:33;13.23;;;9.20;;
30127;SDS011;16942;53.196;6.592;2022-08-11T06:18:59;13.80;;;9.53;;
30127;SDS011;16942;53.196;6.592;2022-08-11T06:21:26;10.13;;;9.03;;
30127;SDS011;16942;53.196;6.592;2022-08-11T06:23:52;22.83;;;12.40;;
30127;SDS011;16942;53.196;6.592;2022-08-11T06:26:22;15.20;;;10.20;;
30127;SDS011;16942;53.196;6.592;2022-08-11T06:28:49;12.33;;;9.40;;
30127;SDS011;16942;53.196;6.592;2022-08-11T06:31:16;14.13;;;9.30;;
30127;SDS011;16942;53.196;6.592;2022-08-11T06:41:43;11.90;;;8.70;;
30127;SDS011;16942;53.196;6.592;2022-08-11T06:46:42;12.43;;;7.93;;
30127;SDS011;16942;53.196;6.592;2022-08-11T06:49:12;12.10;;;9.80;;
30127;SDS011;16942;53.196;6.592;2022-08-11T06:52:05;16.87;;;9.60;;
30127;SDS011;16942;53.196;6.592;2022-08-11T06:54:38;12.77;;;8.80;;
30127;SDS011;16942;53.196;6.592;2022-08-11T06:57:10;17.83;;;10.37;;
30127;SDS011;16942;53.196;6.592;2022-08-11T06:59:56;17.83;;;10.87;;
30127;SDS011;16942;53.196;6.592;2022-08-11T07:03:05;15.73;;;10.00;;
30127;SDS011;16942;53.196;6.592;2022-08-11T07:05:44;15.83;;;9.83;;
30127;SDS011;16942;53.196;6.592;2022-08-11T07:14:44;10.37;;;8.53;;
30127;SDS011;16942;53.196;6.592;2022-08-11T07:17:37;14.90;;;10.17;;
30127;SDS011;16942;53.196;6.592;2022-08-11T07:20:13;14.40;;;9.13;;
30127;SDS011;16942;53.196;6.592;2022-08-11T07:22:58;10.40;;;7.87;;
30127;SDS011;16942;53.196;6.592;2022-08-11T07:25:46;12.37;;;7.87;;
30127;SDS011;16942;53.196;6.592;2022-08-11T07:28:34;12.17;;;7.67;;
30127;SDS011;16942;53.196;6.592;2022-08-11T07:31:33;9.43;;;7.80;;
30127;SDS011;16942;53.196;6.592;2022-08-11T07:36:45;10.87;;;8.10;;
30127;SDS011;16942;53.196;6.592;2022-08-11T07:39:20;10.33;;;7.60;;
30127;SDS011;16942;53.196;6.592;2022-08-11T07:41:50;9.80;;;7.00;;
30127;SDS011;16942;53.196;6.592;2022-08-11T07:44:17;12.20;;;6.63;;
30127;SDS011;16942;53.196;6.592;2022-08-11T07:46:44;10.73;;;6.93;;
30127;SDS011;16942;53.196;6.592;2022-08-11T07:49:30;9.67;;;6.90;;
30127;SDS011;16942;53.196;6.592;2022-08-11T07:52:18;10.37;;;5.80;;
30127;SDS011;16942;53.196;6.592;2022-08-11T07:54:57;7.57;;;5.70;;
30127;SDS011;16942;53.196;6.592;2022-08-11T07:57:29;11.37;;;6.60;;
30127;SDS011;16942;53.196;6.592;2022-08-11T08:00:15;10.77;;;6.97;;
30127;SDS011;16942;53.196;6.592;2022-08-11T08:03:01;7.30;;;4.93;;
30127;SDS011;16942;53.196;6.592;2022-08-11T08:05:47;5.80;;;4.77;;
30127;SDS011;16942;53.196;6.592;2022-08-11T08:08:33;8.87;;;4.40;;
30127;SDS011;16942;53.196;6.592;2022-08-11T08:11:19;8.17;;;5.80;;
30127;SDS011;16942;53.196;6.592;2022-08-11T08:14:06;12.50;;;5.37;;
30127;SDS011;16942;53.196;6.592;2022-08-11T08:16:52;5.20;;;4.40;;
30127;SDS011;16942;53.196;6.592;2022-08-11T08:19:38;6.87;;;4.50;;
30127;SDS011;16942;53.196;6.592;2022-08-11T08:22:08;5.57;;;3.10;;
30127;SDS011;16942;53.196;6.592;2022-08-11T08:24:40;4.30;;;3.10;;
30127;SDS011;16942;53.196;6.592;2022-08-11T08:27:07;7.88;;;3.25;;
30127;SDS011;16942;53.196;6.592;2022-08-11T08:29:36;4.07;;;3.22;;
30127;SDS011;16942;53.196;6.592;2022-08-11T08:32:20;5.57;;;3.50;;
30127;SDS011;16942;53.196;6.592;2022-08-11T08:34:50;8.15;;;5.35;;
30127;SDS011;16942;53.196;6.592;2022-08-11T08:37:17;6.82;;;4.45;;
30127;SDS011;16942;53.196;6.592;2022-08-11T08:39:44;11.82;;;4.78;;
30127;SDS011;16942;53.196;6.592;2022-08-11T08:42:11;8.23;;;4.47;;
30127;SDS011;16942;53.196;6.592;2022-08-11T08:44:42;8.73;;;3.58;;
30127;SDS011;16942;53.196;6.592;2022-08-11T08:47:15;9.00;;;3.38;;
30127;SDS011;16942;53.196;6.592;2022-08-11T08:49:49;4.88;;;2.65;;
30127;SDS011;16942;53.196;6.592;2022-08-11T08:52:23;4.35;;;2.80;;
30127;SDS011;16942;53.196;6.592;2022-08-11T08:54:53;4.22;;;2.70;;
30127;SDS011;16942;53.196;6.592;2022-08-11T08:57:22;4.25;;;3.00;;
30127;SDS011;16942;53.196;6.592;2022-08-11T08:59:51;8.80;;;4.07;;
30127;SDS011;16942;53.196;6.592;2022-08-11T09:02:17;5.43;;;2.90;;
30127;SDS011;16942;53.196;6.592;2022-08-11T09:04:47;5.07;;;3.20;;
30127;SDS011;16942;53.196;6.592;2022-08-11T09:07:17;5.50;;;3.08;;
30127;SDS011;16942;53.196;6.592;2022-08-11T09:09:48;6.05;;;2.80;;
30127;SDS011;16942;53.196;6.592;2022-08-11T09:12:18;5.97;;;2.80;;
30127;SDS011;16942;53.196;6.592;2022-08-11T09:14:49;5.00;;;2.97;;
30127;SDS011;16942;53.196;6.592;2022-08-11T09:17:28;5.30;;;2.63;;
30127;SDS011;16942;53.196;6.592;2022-08-11T09:19:59;3.95;;;2.80;;
30127;SDS011;16942;53.196;6.592;2022-08-11T09:22:29;4.18;;;2.40;;
30127;SDS011;16942;53.196;6.592;2022-08-11T09:25:16;4.50;;;2.60;;
30127;SDS011;16942;53.196;6.592;2022-08-11T09:28:02;5.43;;;2.97;;
30127;SDS011;16942;53.196;6.592;2022-08-11T09:30:29;7.32;;;2.90;;
30127;SDS011;16942;53.196;6.592;2022-08-11T09:32:57;8.38;;;2.03;;
30127;SDS011;16942;53.196;6.592;2022-08-11T09:35:29;2.95;;;2.20;;
30127;SDS011;16942;53.196;6.592;2022-08-11T09:37:57;4.72;;;1.92;;
30127;SDS011;16942;53.196;6.592;2022-08-11T09:40:44;4.75;;;2.03;;
30127;SDS011;16942;53.196;6.592;2022-08-11T09:43:11;8.65;;;1.95;;
30127;SDS011;16942;53.196;6.592;2022-08-11T09:45:57;2.30;;;2.10;;
30127;SDS011;16942;53.196;6.592;2022-08-11T09:48:24;2.30;;;2.00;;
30127;SDS011;16942;53.196;6.592;2022-08-11T09:50:53;5.10;;;2.22;;
30127;SDS011;16942;53.196;6.592;2022-08-11T09:53:21;2.65;;;2.05;;
30127;SDS011;16942;53.196;6.592;2022-08-11T09:55:49;2.80;;;1.85;;
30127;SDS011;16942;53.196;6.592;2022-08-11T09:58:15;3.58;;;2.55;;
30127;SDS011;16942;53.196;6.592;2022-08-11T10:00:42;3.65;;;2.10;;
30127;SDS011;16942;53.196;6.592;2022-08-11T10:03:16;3.25;;;2.33;;
30127;SDS011;16942;53.196;6.592;2022-08-11T10:05:46;4.70;;;2.53;;
30127;SDS011;16942;53.196;6.592;2022-08-11T10:08:32;2.10;;;1.90;;
30127;SDS011;16942;53.196;6.592;2022-08-11T10:11:01;6.90;;;2.10;;
30127;SDS011;16942;53.196;6.592;2022-08-11T10:13:34;2.63;;;2.05;;
30127;SDS011;16942;53.196;6.592;2022-08-11T10:16:25;3.10;;;1.90;;
30127;SDS011;16942;53.196;6.592;2022-08-11T10:18:52;2.05;;;1.80;;
30127;SDS011;16942;53.196;6.592;2022-08-11T10:21:36;6.10;;;1.88;;
30127;SDS011;16942;53.196;6.592;2022-08-11T10:24:08;3.40;;;2.00;;
30127;SDS011;16942;53.196;6.592;2022-08-11T10:26:54;2.22;;;1.67;;
30127;SDS011;16942;53.196;6.592;2022-08-11T10:29:31;2.13;;;1.92;;
30127;SDS011;16942;53.196;6.592;2022-08-11T10:32:20;7.43;;;2.10;;
30127;SDS011;16942;53.196;6.592;2022-08-11T10:35:06;2.28;;;1.73;;
30127;SDS011;16942;53.196;6.592;2022-08-11T10:37:36;2.22;;;2.03;;
30127;SDS011;16942;53.196;6.592;2022-08-11T10:40:03;3.83;;;1.77;;
30127;SDS011;16942;53.196;6.592;2022-08-11T10:42:30;4.07;;;1.75;;
30127;SDS011;16942;53.196;6.592;2022-08-11T10:45:15;3.00;;;2.08;;
30127;SDS011;16942;53.196;6.592;2022-08-11T10:48:07;2.95;;;1.83;;
30127;SDS011;16942;53.196;6.592;2022-08-11T10:50:34;1.75;;;1.65;;
30127;SDS011;16942;53.196;6.592;2022-08-11T10:53:20;3.28;;;2.00;;
30127;SDS011;16942;53.196;6.592;2022-08-11T10:56:06;3.00;;;1.80;;
30127;SDS011;16942;53.196;6.592;2022-08-11T10:58:51;1.80;;;1.70;;
30127;SDS011;16942;53.196;6.592;2022-08-11T11:01:22;2.42;;;1.60;;
30127;SDS011;16942;53.196;6.592;2022-08-11T11:03:50;4.68;;;1.98;;
30127;SDS011;16942;53.196;6.592;2022-08-11T11:09:13;2.45;;;1.88;;
30127;SDS011;16942;53.196;6.592;2022-08-11T11:11:52;2.50;;;2.25;;
30127;SDS011;16942;53.196;6.592;2022-08-11T11:14:39;4.30;;;2.10;;
30127;SDS011;16942;53.196;6.592;2022-08-11T11:17:26;5.47;;;2.00;;
30127;SDS011;16942;53.196;6.592;2022-08-11T11:20:18;5.30;;;2.45;;
30127;SDS011;16942;53.196;6.592;2022-08-11T11:22:49;2.33;;;2.13;;
30127;SDS011;16942;53.196;6.592;2022-08-11T11:25:21;3.08;;;2.45;;
30127;SDS011;16942;53.196;6.592;2022-08-11T11:34:00;9.57;;;2.30;;
30127;SDS011;16942;53.196;6.592;2022-08-11T11:39:01;3.70;;;2.20;;
30127;SDS011;16942;53.196;6.592;2022-08-11T11:41:27;2.53;;;2.20;;
30127;SDS011;16942;53.196;6.592;2022-08-11T11:43:54;6.43;;;2.50;;
30127;SDS011;16942;53.196;6.592;2022-08-11T11:46:22;4.68;;;2.17;;
30127;SDS011;16942;53.196;6.592;2022-08-11T11:48:49;3.00;;;1.85;;
30127;SDS011;16942;53.196;6.592;2022-08-11T11:51:16;2.00;;;1.90;;
30127;SDS011;16942;53.196;6.592;2022-08-11T11:53:42;2.60;;;1.70;;
30127;SDS011;16942;53.196;6.592;2022-08-11T11:56:09;2.28;;;1.98;;
30127;SDS011;16942;53.196;6.592;2022-08-11T11:58:36;2.40;;;2.00;;
30127;SDS011;16942;53.196;6.592;2022-08-11T12:01:21;3.45;;;1.75;;
30127;SDS011;16942;53.196;6.592;2022-08-11T12:03:49;4.47;;;2.25;;
30127;SDS011;16942;53.196;6.592;2022-08-11T12:06:17;1.77;;;1.67;;
30127;SDS011;16942;53.196;6.592;2022-08-11T12:08:43;2.20;;;1.73;;
30127;SDS011;16942;53.196;6.592;2022-08-11T12:11:12;2.72;;;1.80;;
30127;SDS011;16942;53.196;6.592;2022-08-11T12:13:59;4.40;;;1.77;;
30127;SDS011;16942;53.196;6.592;2022-08-11T12:16:26;1.92;;;1.80;;
30127;SDS011;16942;53.196;6.592;2022-08-11T12:18:54;1.80;;;1.70;;
30127;SDS011;16942;53.196;6.592;2022-08-11T12:21:21;2.53;;;2.33;;
30127;SDS011;16942;53.196;6.592;2022-08-11T12:23:49;2.53;;;2.33;;
30127;SDS011;16942;53.196;6.592;2022-08-11T12:26:34;2.33;;;2.13;;
30127;SDS011;16942;53.196;6.592;2022-08-11T12:29:19;2.15;;;1.92;;
30127;SDS011;16942;53.196;6.592;2022-08-11T12:31:46;6.30;;;2.20;;
30127;SDS011;16942;53.196;6.592;2022-08-11T12:34:15;2.20;;;1.92;;
30127;SDS011;16942;53.196;6.592;2022-08-11T12:36:42;2.20;;;2.03;;
30127;SDS011;16942;53.196;6.592;2022-08-11T12:39:11;2.75;;;1.90;;
30127;SDS011;16942;53.196;6.592;2022-08-11T12:41:37;1.98;;;1.85;;
30127;SDS011;16942;53.196;6.592;2022-08-11T12:44:26;3.50;;;2.00;;
30127;SDS011;16942;53.196;6.592;2022-08-11T12:47:12;2.60;;;1.80;;
30127;SDS011;16942;53.196;6.592;2022-08-11T12:49:44;5.07;;;2.40;;
30127;SDS011;16942;53.196;6.592;2022-08-11T12:52:31;2.72;;;2.20;;
30127;SDS011;16942;53.196;6.592;2022-08-11T13:00:18;2.10;;;1.90;;
30127;SDS011;16942;53.196;6.592;2022-08-11T13:03:04;2.58;;;1.85;;
30127;SDS011;16942;53.196;6.592;2022-08-11T13:05:52;2.92;;;2.10;;
30127;SDS011;16942;53.196;6.592;2022-08-11T13:08:19;3.85;;;1.90;;
30127;SDS011;16942;53.196;6.592;2022-08-11T13:10:46;1.70;;;1.58;;
30127;SDS011;16942;53.196;6.592;2022-08-11T13:13:33;1.70;;;1.60;;
30127;SDS011;16942;53.196;6.592;2022-08-11T13:15:59;2.10;;;1.90;;
30127;SDS011;16942;53.196;6.592;2022-08-11T13:18:25;4.00;;;1.95;;
30127;SDS011;16942;53.196;6.592;2022-08-11T13:20:54;2.00;;;1.90;;
30127;SDS011;16942;53.196;6.592;2022-08-11T13:23:22;1.90;;;1.70;;
30127;SDS011;16942;53.196;6.592;2022-08-11T13:25:49;3.40;;;1.75;;
30127;SDS011;16942;53.196;6.592;2022-08-11T13:28:17;2.53;;;2.00;;
30127;SDS011;16942;53.196;6.592;2022-08-11T13:30:45;4.65;;;2.40;;
30127;SDS011;16942;53.196;6.592;2022-08-11T13:33:32;2.28;;;1.65;;
30127;SDS011;16942;53.196;6.592;2022-08-11T13:35:58;5.78;;;2.10;;
30127;SDS011;16942;53.196;6.592;2022-08-11T13:38:24;1.50;;;1.40;;
30127;SDS011;16942;53.196;6.592;2022-08-11T13:40:52;1.70;;;1.60;;
30127;SDS011;16942;53.196;6.592;2022-08-11T13:43:20;6.95;;;2.10;;
30127;SDS011;16942;53.196;6.592;2022-08-11T13:45:46;5.20;;;1.92;;
30127;SDS011;16942;53.196;6.592;2022-08-11T13:48:12;1.85;;;1.73;;
30127;SDS011;16942;53.196;6.592;2022-08-11T13:50:39;1.70;;;1.60;;
30127;SDS011;16942;53.196;6.592;2022-08-11T13:53:25;1.98;;;1.85;;
30127;SDS011;16942;53.196;6.592;2022-08-11T13:55:52;1.80;;;1.70;;
30127;SDS011;16942;53.196;6.592;2022-08-11T13:58:19;2.35;;;2.00;;
30127;SDS011;16942;53.196;6.592;2022-08-11T14:00:47;2.92;;;1.85;;
30127;SDS011;16942;53.196;6.592;2022-08-11T14:03:13;2.15;;;2.05;;
30127;SDS011;16942;53.196;6.592;2022-08-11T14:05:45;5.70;;;1.80;;
30127;SDS011;16942;53.196;6.592;2022-08-11T14:08:14;5.50;;;1.73;;
30127;SDS011;16942;53.196;6.592;2022-08-11T14:10:42;2.78;;;1.70;;
30127;SDS011;16942;53.196;6.592;2022-08-11T14:13:09;7.80;;;1.70;;
30127;SDS011;16942;53.196;6.592;2022-08-11T14:15:54;5.90;;;1.90;;
30127;SDS011;16942;53.196;6.592;2022-08-11T14:18:26;3.45;;;2.35;;
30127;SDS011;16942;53.196;6.592;2022-08-11T14:20:54;4.03;;;1.80;;
30127;SDS011;16942;53.196;6.592;2022-08-11T14:24:02;2.30;;;1.90;;
30127;SDS011;16942;53.196;6.592;2022-08-11T14:26:28;1.60;;;1.50;;
30127;SDS011;16942;53.196;6.592;2022-08-11T14:28:59;4.60;;;1.88;;
30127;SDS011;16942;53.196;6.592;2022-08-11T14:31:26;3.40;;;1.88;;
30127;SDS011;16942;53.196;6.592;2022-08-11T14:33:54;1.98;;;1.70;;
30127;SDS011;16942;53.196;6.592;2022-08-11T14:36:21;3.25;;;2.15;;
30127;SDS011;16942;53.196;6.592;2022-08-11T14:38:48;1.95;;;1.70;;
30127;SDS011;16942;53.196;6.592;2022-08-11T14:41:15;1.75;;;1.65;;
30127;SDS011;16942;53.196;6.592;2022-08-11T14:44:01;2.45;;;1.70;;
30127;SDS011;16942;53.196;6.592;2022-08-11T14:46:46;4.15;;;2.08;;
30127;SDS011;16942;53.196;6.592;2022-08-11T14:49:40;2.22;;;1.67;;
30127;SDS011;16942;53.196;6.592;2022-08-11T14:52:11;5.85;;;2.17;;
30127;SDS011;16942;53.196;6.592;2022-08-11T14:54:39;8.60;;;2.10;;
30127;SDS011;16942;53.196;6.592;2022-08-11T14:57:25;2.65;;;2.00;;
30127;SDS011;16942;53.196;6.592;2022-08-11T14:59:52;2.42;;;2.08;;
30127;SDS011;16942;53.196;6.592;2022-08-11T15:02:20;3.60;;;1.77;;
30127;SDS011;16942;53.196;6.592;2022-08-11T15:05:05;6.32;;;2.08;;
30127;SDS011;16942;53.196;6.592;2022-08-11T15:07:31;2.22;;;2.03;;
30127;SDS011;16942;53.196;6.592;2022-08-11T15:09:58;4.55;;;2.10;;
30127;SDS011;16942;53.196;6.592;2022-08-11T15:12:25;2.97;;;1.95;;
30127;SDS011;16942;53.196;6.592;2022-08-11T15:14:52;2.45;;;2.00;;
30127;SDS011;16942;53.196;6.592;2022-08-11T15:17:38;4.07;;;2.03;;
30127;SDS011;16942;53.196;6.592;2022-08-11T15:20:08;3.05;;;2.00;;
30127;SDS011;16942;53.196;6.592;2022-08-11T15:22:54;5.53;;;2.22;;
30127;SDS011;16942;53.196;6.592;2022-08-11T15:25:40;1.88;;;1.73;;
30127;SDS011;16942;53.196;6.592;2022-08-11T15:28:07;1.95;;;1.75;;
30127;SDS011;16942;53.196;6.592;2022-08-11T15:30:53;5.45;;;1.90;;
30127;SDS011;16942;53.196;6.592;2022-08-11T15:33:39;6.15;;;1.90;;
30127;SDS011;16942;53.196;6.592;2022-08-11T15:36:24;2.60;;;1.98;;
30127;SDS011;16942;53.196;6.592;2022-08-11T15:42:28;5.38;;;2.05;;
30127;SDS011;16942;53.196;6.592;2022-08-11T15:45:14;2.25;;;2.05;;
30127;SDS011;16942;53.196;6.592;2022-08-11T15:48:06;2.70;;;1.83;;
30127;SDS011;16942;53.196;6.592;2022-08-11T15:50:33;2.38;;;2.15;;
30127;SDS011;16942;53.196;6.592;2022-08-11T15:53:16;4.13;;;2.30;;
30127;SDS011;16942;53.196;6.592;2022-08-11T15:55:44;7.70;;;2.47;;
30127;SDS011;16942;53.196;6.592;2022-08-11T15:58:12;2.50;;;2.03;;
30127;SDS011;16942;53.196;6.592;2022-08-11T16:00:58;9.77;;;2.55;;
30127;SDS011;16942;53.196;6.592;2022-08-11T16:03:48;2.58;;;2.20;;
30127;SDS011;16942;53.196;6.592;2022-08-11T16:06:34;2.97;;;2.13;;
30127;SDS011;16942;53.196;6.592;2022-08-11T16:09:02;2.22;;;2.03;;
30127;SDS011;16942;53.196;6.592;2022-08-11T16:11:30;2.67;;;1.88;;
30127;SDS011;16942;53.196;6.592;2022-08-11T16:13:56;2.92;;;1.85;;
30127;SDS011;16942;53.196;6.592;2022-08-11T16:16:42;2.92;;;2.33;;
30127;SDS011;16942;53.196;6.592;2022-08-11T16:19:08;3.25;;;2.20;;
30127;SDS011;16942;53.196;6.592;2022-08-11T16:21:35;2.72;;;2.30;;
30127;SDS011;16942;53.196;6.592;2022-08-11T16:24:05;2.83;;;2.10;;
30127;SDS011;16942;53.196;6.592;2022-08-11T16:26:32;2.30;;;2.00;;
30127;SDS011;16942;53.196;6.592;2022-08-11T16:29:00;2.55;;;1.80;;
30127;SDS011;16942;53.196;6.592;2022-08-11T16:31:27;7.97;;;2.45;;
30127;SDS011;16942;53.196;6.592;2022-08-11T16:33:55;3.75;;;2.10;;
30127;SDS011;16942;53.196;6.592;2022-08-11T16:36:22;8.93;;;2.58;;
30127;SDS011;16942;53.196;6.592;2022-08-11T16:39:08;4.30;;;2.35;;
30127;SDS011;16942;53.196;6.592;2022-08-11T16:41:35;3.72;;;1.90;;
30127;SDS011;16942;53.196;6.592;2022-08-11T16:44:21;2.40;;;2.20;;
30127;SDS011;16942;53.196;6.592;2022-08-11T16:47:07;2.97;;;2.67;;
30127;SDS011;16942;53.196;6.592;2022-08-11T16:49:35;3.00;;;2.03;;
30127;SDS011;16942;53.196;6.592;2022-08-11T16:52:03;3.30;;;2.13;;
30127;SDS011;16942;53.196;6.592;2022-08-11T16:54:33;2.28;;;2.05;;
30127;SDS011;16942;53.196;6.592;2022-08-11T16:57:02;4.70;;;2.30;;
30127;SDS011;16942;53.196;6.592;2022-08-11T16:59:47;3.75;;;2.15;;
30127;SDS011;16942;53.196;6.592;2022-08-11T17:02:17;3.55;;;2.25;;
30127;SDS011;16942;53.196;6.592;2022-08-11T17:05:06;3.85;;;2.20;;
30127;SDS011;16942;53.196;6.592;2022-08-11T17:07:51;3.28;;;2.60;;
30127;SDS011;16942;53.196;6.592;2022-08-11T17:10:37;5.63;;;3.03;;
30127;SDS011;16942;53.196;6.592;2022-08-11T17:13:36;3.15;;;2.72;;
30127;SDS011;16942;53.196;6.592;2022-08-11T17:16:05;4.28;;;2.05;;
30127;SDS011;16942;53.196;6.592;2022-08-11T17:18:49;5.22;;;2.28;;
30127;SDS011;16942;53.196;6.592;2022-08-11T17:21:27;8.25;;;2.13;;
30127;SDS011;16942;53.196;6.592;2022-08-11T17:23:55;2.17;;;2.00;;
30127;SDS011;16942;53.196;6.592;2022-08-11T17:26:42;2.80;;;2.20;;
30127;SDS011;16942;53.196;6.592;2022-08-11T17:29:20;2.90;;;2.28;;
30127;SDS011;16942;53.196;6.592;2022-08-11T17:31:48;4.72;;;2.30;;
30127;SDS011;16942;53.196;6.592;2022-08-11T17:34:33;2.95;;;2.30;;
30127;SDS011;16942;53.196;6.592;2022-08-11T17:37:19;5.50;;;2.20;;
30127;SDS011;16942;53.196;6.592;2022-08-11T17:39:45;3.63;;;2.47;;
30127;SDS011;16942;53.196;6.592;2022-08-11T17:42:12;8.90;;;2.55;;
30127;SDS011;16942;53.196;6.592;2022-08-11T17:44:58;5.65;;;2.30;;
30127;SDS011;16942;53.196;6.592;2022-08-11T17:47:43;5.57;;;2.10;;
30127;SDS011;16942;53.196;6.592;2022-08-11T17:50:28;4.43;;;2.10;;
30127;SDS011;16942;53.196;6.592;2022-08-11T17:52:55;6.38;;;2.58;;
30127;SDS011;16942;53.196;6.592;2022-08-11T17:55:40;3.22;;;2.47;;
30127;SDS011;16942;53.196;6.592;2022-08-11T17:58:25;5.05;;;2.47;;
30127;SDS011;16942;53.196;6.592;2022-08-11T18:01:10;4.85;;;1.98;;
30127;SDS011;16942;53.196;6.592;2022-08-11T18:03:37;2.90;;;2.00;;
30127;SDS011;16942;53.196;6.592;2022-08-11T18:06:05;2.10;;;1.90;;
30127;SDS011;16942;53.196;6.592;2022-08-11T18:08:32;4.40;;;1.90;;
30127;SDS011;16942;53.196;6.592;2022-08-11T18:11:18;3.70;;;1.90;;
30127;SDS011;16942;53.196;6.592;2022-08-11T18:14:05;1.95;;;1.85;;
30127;SDS011;16942;53.196;6.592;2022-08-11T18:16:49;2.42;;;2.22;;
30127;SDS011;16942;53.196;6.592;2022-08-11T18:19:34;2.83;;;2.15;;
30127;SDS011;16942;53.196;6.592;2022-08-11T18:22:20;2.85;;;2.00;;
30127;SDS011;16942;53.196;6.592;2022-08-11T18:25:08;5.85;;;1.88;;
30127;SDS011;16942;53.196;6.592;2022-08-11T18:27:53;3.00;;;1.92;;
30127;SDS011;16942;53.196;6.592;2022-08-11T18:30:41;4.07;;;1.70;;
30127;SDS011;16942;53.196;6.592;2022-08-11T18:33:26;3.45;;;1.73;;
30127;SDS011;16942;53.196;6.592;2022-08-11T18:36:14;2.90;;;2.47;;
30127;SDS011;16942;53.196;6.592;2022-08-11T18:39:00;4.20;;;2.60;;
30127;SDS011;16942;53.196;6.592;2022-08-11T18:41:46;5.03;;;2.10;;
30127;SDS011;16942;53.196;6.592;2022-08-11T18:44:32;4.35;;;2.22;;
30127;SDS011;16942;53.196;6.592;2022-08-11T18:47:19;2.22;;;2.03;;